createdAt,value
2019-05-29T00:00:24.768Z,13.40
2019-05-29T00:02:52.060Z,13.40
2019-05-29T00:05:19.312Z,13.40
2019-05-29T00:07:46.548Z,13.40
2019-05-29T00:10:14.382Z,13.40
2019-05-29T00:12:41.729Z,13.40
2019-05-29T00:15:08.997Z,13.40
2019-05-29T00:17:36.230Z,13.40
2019-05-29T00:20:03.770Z,13.40
2019-05-29T00:22:31.055Z,13.30
2019-05-29T00:24:58.335Z,13.20
2019-05-29T00:27:25.572Z,13.10
2019-05-29T00:29:52.843Z,13.10
2019-05-29T00:32:20.080Z,13.10
2019-05-29T00:34:47.428Z,13.00
2019-05-29T00:37:14.688Z,13.00
2019-05-29T00:39:42.027Z,12.90
2019-05-29T00:42:09.300Z,12.90
2019-05-29T00:44:36.556Z,12.90
2019-05-29T00:47:03.817Z,13.00
2019-05-29T00:49:31.163Z,13.00
2019-05-29T00:51:58.428Z,13.00
2019-05-29T00:54:25.670Z,13.10
2019-05-29T00:56:52.925Z,13.10
2019-05-29T00:59:20.161Z,13.20
2019-05-29T01:01:47.425Z,13.10
2019-05-29T01:04:15.673Z,13.20
2019-05-29T01:06:43.029Z,13.10
2019-05-29T01:09:10.459Z,13.00
2019-05-29T01:11:37.722Z,13.10
2019-05-29T01:14:04.991Z,13.00
2019-05-29T01:16:32.305Z,12.90
2019-05-29T01:19:20.177Z,12.80
2019-05-29T01:21:47.669Z,12.70
2019-05-29T01:24:14.944Z,12.70
2019-05-29T01:26:42.262Z,12.70
2019-05-29T01:29:09.505Z,12.70
2019-05-29T01:31:36.764Z,12.60
2019-05-29T01:34:04.041Z,12.60
2019-05-29T01:36:31.344Z,12.70
2019-05-29T01:38:58.620Z,12.70
2019-05-29T01:41:25.885Z,12.70
2019-05-29T01:43:53.153Z,12.70
2019-05-29T01:46:21.516Z,12.60
2019-05-29T01:48:48.896Z,12.60
2019-05-29T01:51:16.137Z,12.70
2019-05-29T01:53:43.721Z,12.80
2019-05-29T01:56:11.218Z,12.80
2019-05-29T01:58:38.445Z,12.70
2019-05-29T02:01:05.725Z,12.60
2019-05-29T02:03:32.995Z,12.50
2019-05-29T02:06:00.251Z,12.50
2019-05-29T02:08:28.338Z,12.50
2019-05-29T02:10:55.689Z,12.60
2019-05-29T02:13:23.570Z,12.60
2019-05-29T02:15:50.885Z,12.60
2019-05-29T02:18:18.825Z,12.60
2019-05-29T02:20:46.109Z,12.70
2019-05-29T02:23:13.509Z,12.80
2019-05-29T02:25:40.749Z,12.80
2019-05-29T02:28:08.003Z,12.80
2019-05-29T02:30:35.254Z,12.70
2019-05-29T02:33:02.517Z,12.60
2019-05-29T02:35:29.839Z,12.60
2019-05-29T02:37:57.123Z,12.60
2019-05-29T02:40:26.364Z,12.50
2019-05-29T02:42:53.617Z,12.40
2019-05-29T02:45:21.673Z,12.40
2019-05-29T02:47:49.607Z,12.30
2019-05-29T02:50:16.880Z,12.40
2019-05-29T02:52:44.119Z,12.50
2019-05-29T02:55:11.379Z,12.50
2019-05-29T02:57:38.639Z,12.50
2019-05-29T03:00:07.164Z,12.50
2019-05-29T03:02:34.408Z,12.40
2019-05-29T03:05:01.817Z,12.50
2019-05-29T03:07:30.700Z,12.50
2019-05-29T03:09:58.417Z,12.60
2019-05-29T03:12:27.052Z,12.70
2019-05-29T03:14:54.408Z,12.70
2019-05-29T03:17:23.500Z,12.80
2019-05-29T03:19:50.903Z,12.90
2019-05-29T03:22:18.127Z,12.90
2019-05-29T03:24:45.406Z,12.90
2019-05-29T03:27:12.654Z,13.00
2019-05-29T03:29:39.888Z,13.10
2019-05-29T03:32:13.268Z,13.10
2019-05-29T03:34:44.118Z,13.20
2019-05-29T03:37:05.432Z,13.20
2019-05-29T03:39:34.468Z,13.20
2019-05-29T03:42:01.854Z,13.10
2019-05-29T03:44:30.590Z,13.10
2019-05-29T03:46:58.073Z,13.10
2019-05-29T03:49:26.810Z,13.10
2019-05-29T03:51:54.224Z,13.10
2019-05-29T03:54:21.478Z,13.10
2019-05-29T03:56:48.721Z,13.20
2019-05-29T03:59:16.006Z,13.20
2019-05-29T04:01:43.279Z,13.20
2019-05-29T04:04:10.542Z,13.30
2019-05-29T04:06:37.836Z,13.30
2019-05-29T04:09:05.624Z,13.30
2019-05-29T04:11:33.239Z,13.30
2019-05-29T04:14:00.544Z,13.30
2019-05-29T04:16:31.127Z,13.30
2019-05-29T04:18:57.597Z,13.40
2019-05-29T04:21:25.009Z,13.40
2019-05-29T04:23:54.670Z,13.40
2019-05-29T04:26:24.023Z,13.40
2019-05-29T04:28:51.573Z,13.40
2019-05-29T04:31:18.821Z,13.30
2019-05-29T04:33:46.154Z,13.40
2019-05-29T04:36:13.452Z,13.40
2019-05-29T04:38:40.717Z,13.40
2019-05-29T04:41:07.981Z,13.50
2019-05-29T04:43:36.053Z,13.40
2019-05-29T04:46:04.425Z,13.50
2019-05-29T04:48:33.500Z,13.50
2019-05-29T04:51:00.950Z,13.50
2019-05-29T04:53:29.442Z,13.50
2019-05-29T04:55:57.416Z,13.50
2019-05-29T04:58:24.705Z,13.50
2019-05-29T05:00:59.108Z,13.50
2019-05-29T05:03:21.221Z,13.50
2019-05-29T05:05:48.493Z,13.60
2019-05-29T05:08:15.756Z,13.50
2019-05-29T05:10:43.725Z,13.40
2019-05-29T05:13:10.985Z,13.40
2019-05-29T05:15:38.332Z,13.40
2019-05-29T05:18:06.217Z,13.50
2019-05-29T05:20:34.016Z,13.60
2019-05-29T05:23:01.334Z,13.70
2019-05-29T05:25:28.621Z,13.60
2019-05-29T05:27:55.875Z,13.70
2019-05-29T05:30:23.165Z,13.80
2019-05-29T05:32:50.425Z,13.80
2019-05-29T05:35:17.716Z,13.90
2019-05-29T05:37:44.949Z,13.80
2019-05-29T05:40:12.248Z,13.60
2019-05-29T05:42:39.599Z,13.50
2019-05-29T05:45:07.265Z,13.60
2019-05-29T05:47:49.986Z,13.70
2019-05-29T05:50:04.225Z,13.70
2019-05-29T05:52:31.445Z,13.60
2019-05-29T05:54:58.754Z,13.70
2019-05-29T05:57:25.993Z,13.80
2019-05-29T05:59:53.234Z,13.90
2019-05-29T06:02:20.496Z,14.00
2019-05-29T06:04:47.737Z,14.10
2019-05-29T06:07:15.004Z,14.20
2019-05-29T06:09:42.581Z,14.20
2019-05-29T06:12:09.938Z,14.20
2019-05-29T06:14:38.408Z,14.20
2019-05-29T06:17:05.882Z,14.30
2019-05-29T06:19:33.144Z,14.20
2019-05-29T06:22:00.469Z,14.00
2019-05-29T06:24:27.905Z,14.00
2019-05-29T06:26:55.248Z,14.00
2019-05-29T06:29:22.517Z,14.00
2019-05-29T06:31:49.769Z,14.00
2019-05-29T06:34:17.072Z,13.90
2019-05-29T06:36:47.891Z,13.90
2019-05-29T06:39:13.572Z,14.00
2019-05-29T06:41:42.043Z,14.00
2019-05-29T06:44:09.365Z,14.00
2019-05-29T06:46:38.221Z,13.90
2019-05-29T06:49:05.628Z,13.90
2019-05-29T06:51:32.862Z,13.90
2019-05-29T06:54:00.118Z,14.00
2019-05-29T06:56:27.364Z,14.20
2019-05-29T06:58:54.612Z,14.20
2019-05-29T07:01:21.901Z,14.30
2019-05-29T07:03:49.150Z,14.40
2019-05-29T07:06:16.512Z,14.50
2019-05-29T07:08:47.881Z,14.50
2019-05-29T07:11:12.938Z,14.50
2019-05-29T07:13:43.151Z,14.50
2019-05-29T07:16:09.385Z,14.60
2019-05-29T07:18:36.675Z,14.80
2019-05-29T07:21:04.704Z,14.90
2019-05-29T07:23:31.958Z,14.90
2019-05-29T07:25:59.278Z,15.00
2019-05-29T07:28:26.599Z,14.90
2019-05-29T07:31:02.087Z,15.00
2019-05-29T07:33:23.034Z,15.10
2019-05-29T07:35:50.484Z,15.30
2019-05-29T07:38:17.792Z,15.40
2019-05-29T07:40:47.558Z,15.50
2019-05-29T07:43:14.171Z,15.60
2019-05-29T07:45:42.200Z,15.50
2019-05-29T07:48:09.495Z,15.50
2019-05-29T07:50:37.957Z,15.40
2019-05-29T07:53:05.289Z,15.50
2019-05-29T07:55:32.534Z,15.50
2019-05-29T07:57:59.813Z,15.40
2019-05-29T08:00:35.312Z,15.50
2019-05-29T08:02:56.346Z,15.60
2019-05-29T08:05:23.597Z,15.80
2019-05-29T08:07:50.897Z,15.90
2019-05-29T08:10:18.189Z,16.00
2019-05-29T08:12:50.723Z,15.90
2019-05-29T08:15:14.703Z,16.00
2019-05-29T08:17:42.175Z,16.10
2019-05-29T08:20:09.527Z,16.40
2019-05-29T08:22:36.769Z,16.50
2019-05-29T08:25:04.717Z,16.60
2019-05-29T08:27:31.980Z,16.70
2019-05-29T08:29:59.257Z,17.00
2019-05-29T08:32:26.504Z,17.40
2019-05-29T08:34:53.857Z,17.50
2019-05-29T08:37:21.129Z,17.90
2019-05-29T08:39:49.472Z,18.10
2019-05-29T08:42:23.123Z,18.20
2019-05-29T08:44:47.441Z,18.30
2019-05-29T08:47:14.828Z,18.30
2019-05-29T08:49:42.109Z,18.00
2019-05-29T08:52:12.375Z,18.20
2019-05-29T08:54:38.515Z,18.30
2019-05-29T08:57:05.777Z,18.30
2019-05-29T08:59:33.041Z,18.30
2019-05-29T09:02:00.344Z,18.40
2019-05-29T09:04:27.909Z,18.60
2019-05-29T09:09:22.433Z,18.70
2019-05-29T09:11:50.135Z,18.50
2019-05-29T09:14:17.864Z,18.40
2019-05-29T09:16:45.133Z,18.30
2019-05-29T09:19:12.382Z,18.10
2019-05-29T09:21:39.658Z,18.00
2019-05-29T09:24:06.913Z,17.90
2019-05-29T09:26:34.191Z,18.10
2019-05-29T09:29:01.475Z,18.30
2019-05-29T09:31:28.756Z,18.30
2019-05-29T09:33:56.000Z,18.30
2019-05-29T09:36:24.594Z,18.30
2019-05-29T09:38:52.031Z,18.30
2019-05-29T09:41:19.279Z,18.30
2019-05-29T09:43:58.401Z,18.40
2019-05-29T09:46:16.979Z,18.60
2019-05-29T09:48:49.843Z,18.80
2019-05-29T09:51:21.124Z,19.00
2019-05-29T09:53:43.260Z,19.10
2019-05-29T09:56:10.556Z,19.30
2019-05-29T09:58:37.831Z,19.30
2019-05-29T10:01:22.284Z,19.30
2019-05-29T10:03:34.244Z,19.30
2019-05-29T10:06:01.731Z,19.40
2019-05-29T10:08:29.055Z,19.60
2019-05-29T10:11:04.812Z,19.70
2019-05-29T10:13:25.601Z,19.40
2019-05-29T10:15:54.053Z,19.10
2019-05-29T10:18:32.155Z,19.10
2019-05-29T10:20:51.309Z,19.20
2019-05-29T10:23:20.090Z,19.40
2019-05-29T10:25:47.529Z,19.30
2019-05-29T10:28:14.777Z,19.10
2019-05-29T10:30:42.339Z,19.10
2019-05-29T10:33:10.089Z,19.10
2019-05-29T10:35:37.347Z,19.10
2019-05-29T10:38:04.598Z,19.20
2019-05-29T10:40:31.865Z,19.30
2019-05-29T10:42:59.129Z,19.40
2019-05-29T10:47:54.107Z,19.20
2019-05-29T10:50:21.662Z,19.40
2019-05-29T10:52:49.933Z,19.30
2019-05-29T10:55:19.662Z,19.30
2019-05-29T10:57:46.905Z,19.40
2019-05-29T11:00:14.672Z,19.30
2019-05-29T11:02:41.922Z,19.40
2019-05-29T11:05:10.082Z,19.60
2019-05-29T11:07:37.354Z,19.80
2019-05-29T11:10:05.959Z,19.80
2019-05-29T11:12:33.201Z,19.90
2019-05-29T11:15:00.500Z,20.30
2019-05-29T11:17:27.810Z,20.30
2019-05-29T11:19:55.660Z,20.40
2019-05-29T11:22:26.598Z,20.40
2019-05-29T11:24:52.526Z,20.30
2019-05-29T11:27:19.859Z,19.90
2019-05-29T11:32:16.148Z,19.90
2019-05-29T11:34:43.475Z,19.80
2019-05-29T11:37:10.752Z,19.80
2019-05-29T11:39:38.057Z,19.80
2019-05-29T11:42:05.302Z,19.80
2019-05-29T11:44:32.569Z,19.70
2019-05-29T11:46:59.818Z,19.70
2019-05-29T11:49:27.110Z,19.70
2019-05-29T11:52:16.998Z,19.80
2019-05-29T11:54:23.568Z,20.00
2019-05-29T11:56:53.209Z,20.20
2019-05-29T11:59:20.052Z,20.10
2019-05-29T12:01:50.534Z,20.10
2019-05-29T12:04:25.729Z,20.20
2019-05-29T12:06:45.634Z,20.40
2019-05-29T12:09:12.897Z,20.70
2019-05-29T12:11:40.160Z,20.90
2019-05-29T12:14:07.444Z,21.00
2019-05-29T12:16:34.796Z,21.00
2019-05-29T12:19:02.382Z,21.00
2019-05-29T12:21:29.685Z,21.00
2019-05-29T12:23:58.092Z,21.30
2019-05-29T12:26:25.649Z,21.50
2019-05-29T12:31:22.102Z,21.20
2019-05-29T12:33:49.356Z,21.10
2019-05-29T12:36:16.728Z,21.10
2019-05-29T12:38:44.003Z,21.20
2019-05-29T12:41:11.259Z,21.10
2019-05-29T12:43:38.504Z,21.10
2019-05-29T12:46:05.926Z,21.10
2019-05-29T12:48:33.305Z,21.20
2019-05-29T12:51:02.235Z,21.30
2019-05-29T12:53:31.288Z,21.30
2019-05-29T12:56:00.330Z,21.40
2019-05-29T12:58:27.937Z,21.60
2019-05-29T13:00:56.397Z,22.00
2019-05-29T13:03:23.829Z,22.60
2019-05-29T13:05:51.328Z,22.90
2019-05-29T13:10:45.814Z,23.00
2019-05-29T13:13:13.049Z,23.20
2019-05-29T13:15:40.333Z,23.70
2019-05-29T13:18:09.992Z,23.80
2019-05-29T13:20:36.855Z,23.50
2019-05-29T13:23:05.413Z,23.20
2019-05-29T13:25:33.668Z,23.00
2019-05-29T13:28:02.697Z,22.90
2019-05-29T13:30:30.408Z,22.60
2019-05-29T13:33:01.699Z,22.00
2019-05-29T13:35:27.012Z,21.10
2019-05-29T13:37:54.402Z,20.90
2019-05-29T13:40:22.233Z,20.80
2019-05-29T13:42:49.487Z,21.00
2019-05-29T13:45:18.716Z,21.40
2019-05-29T13:47:46.169Z,22.00
2019-05-29T13:50:13.430Z,22.20
2019-05-29T13:52:40.731Z,22.60
2019-05-29T13:55:10.018Z,22.20
2019-05-29T13:57:39.712Z,21.50
2019-05-29T14:02:36.507Z,20.60
2019-05-29T14:05:06.797Z,20.10
2019-05-29T14:07:34.273Z,19.60
2019-05-29T14:10:03.443Z,19.50
2019-05-29T14:12:31.002Z,19.60
2019-05-29T14:14:58.380Z,19.70
2019-05-29T14:17:25.653Z,19.80
2019-05-29T14:19:52.901Z,19.70
2019-05-29T14:22:20.161Z,19.60
2019-05-29T14:24:47.492Z,19.70
2019-05-29T14:27:14.782Z,20.10
2019-05-29T14:29:42.055Z,20.20
2019-05-29T14:32:09.431Z,20.20
2019-05-29T14:34:36.849Z,19.70
2019-05-29T14:37:04.917Z,19.50
2019-05-29T14:39:33.276Z,19.40
2019-05-29T14:42:01.717Z,19.40
2019-05-29T14:44:29.402Z,19.50
2019-05-29T14:46:56.664Z,19.40
2019-05-29T14:49:26.817Z,19.30
2019-05-29T14:51:53.157Z,19.20
2019-05-29T14:54:20.424Z,19.30
2019-05-29T14:56:47.759Z,19.60
2019-05-29T14:59:15.089Z,19.80
2019-05-29T15:01:42.402Z,19.50
2019-05-29T15:04:09.692Z,19.40
2019-05-29T15:06:36.990Z,19.40
2019-05-29T15:09:05.657Z,19.30
2019-05-29T15:11:32.906Z,19.40
2019-05-29T15:16:27.503Z,19.50
2019-05-29T15:18:54.857Z,19.50
2019-05-29T15:21:22.465Z,19.40
2019-05-29T15:23:49.780Z,19.50
2019-05-29T15:26:17.044Z,19.60
2019-05-29T15:28:44.314Z,19.90
2019-05-29T15:31:12.393Z,20.30
2019-05-29T15:33:39.753Z,20.70
2019-05-29T15:36:07.058Z,20.60
2019-05-29T15:38:34.416Z,20.30
2019-05-29T15:41:01.700Z,20.20
2019-05-29T15:43:28.994Z,20.00
2019-05-29T15:45:56.285Z,19.90
2019-05-29T15:48:23.649Z,19.90
2019-05-29T15:50:50.924Z,19.80
2019-05-29T15:55:45.349Z,19.60
2019-05-29T15:58:13.440Z,19.60
2019-05-29T16:00:40.841Z,19.60
2019-05-29T16:03:09.432Z,19.60
2019-05-29T16:05:36.782Z,19.60
2019-05-29T16:08:05.501Z,19.50
2019-05-29T16:10:32.774Z,19.60
2019-05-29T16:13:00.069Z,19.60
2019-05-29T16:15:27.333Z,19.70
2019-05-29T16:17:54.804Z,19.70
2019-05-29T16:20:22.846Z,19.70
2019-05-29T16:22:50.379Z,19.70
2019-05-29T16:25:18.998Z,19.70
2019-05-29T16:27:46.496Z,19.80
2019-05-29T16:30:15.403Z,19.80
2019-05-29T16:32:42.857Z,19.60
2019-05-29T16:35:10.990Z,19.70
2019-05-29T16:37:38.446Z,20.10
2019-05-29T16:40:06.473Z,20.40
2019-05-29T16:42:33.756Z,20.70
2019-05-29T16:45:01.038Z,21.00
2019-05-29T16:47:28.318Z,21.00
2019-05-29T16:49:55.633Z,20.50
2019-05-29T16:52:23.015Z,20.40
2019-05-29T16:54:50.377Z,20.40
2019-05-29T16:57:19.123Z,20.50
2019-05-29T16:59:46.597Z,20.50
2019-05-29T17:02:13.864Z,20.60
2019-05-29T17:04:41.289Z,20.60
2019-05-29T17:07:08.564Z,20.70
2019-05-29T17:09:35.793Z,20.80
2019-05-29T17:12:03.218Z,20.70
2019-05-29T17:16:57.789Z,20.70
2019-05-29T17:19:25.588Z,20.50
2019-05-29T17:21:52.995Z,20.30
2019-05-29T17:24:20.945Z,20.30
2019-05-29T17:26:48.351Z,20.30
2019-05-29T17:29:16.777Z,20.30
2019-05-29T17:31:44.250Z,20.30
2019-05-29T17:34:11.511Z,20.20
2019-05-29T17:36:38.769Z,20.10
2019-05-29T17:39:07.532Z,20.10
2019-05-29T17:41:34.817Z,20.10
2019-05-29T17:44:02.159Z,20.00
2019-05-29T17:46:29.576Z,19.80
2019-05-29T17:48:56.992Z,19.60
2019-05-29T17:51:24.275Z,19.50
2019-05-29T17:53:51.516Z,19.30
2019-05-29T17:56:30.505Z,19.10
2019-05-29T17:58:48.214Z,19.00
2019-05-29T18:01:16.097Z,18.90
2019-05-29T18:03:43.558Z,18.90
2019-05-29T18:08:38.206Z,18.50
2019-05-29T18:11:05.478Z,18.40
2019-05-29T18:13:32.832Z,18.30
2019-05-29T18:16:00.199Z,18.30
2019-05-29T18:18:27.824Z,18.10
2019-05-29T18:20:55.209Z,18.00
2019-05-29T18:23:23.785Z,17.90
2019-05-29T18:25:51.497Z,17.80
2019-05-29T18:28:19.906Z,17.60
2019-05-29T18:30:47.454Z,17.50
2019-05-29T18:33:14.703Z,17.40
2019-05-29T18:35:42.402Z,17.30
2019-05-29T18:38:09.906Z,17.20
2019-05-29T18:40:37.164Z,17.10
2019-05-29T18:43:04.409Z,17.00
2019-05-29T18:45:31.682Z,16.90
2019-05-29T18:47:58.994Z,16.90
2019-05-29T18:50:27.477Z,16.90
2019-05-29T18:52:54.894Z,16.80
2019-05-29T18:55:22.782Z,16.70
2019-05-29T18:57:50.290Z,16.70
2019-05-29T19:00:17.957Z,16.60
2019-05-29T19:02:45.314Z,16.40
2019-05-29T19:05:12.797Z,16.30
2019-05-29T19:07:40.064Z,16.20
2019-05-29T19:10:07.908Z,16.20
2019-05-29T19:12:35.231Z,16.20
2019-05-29T19:15:02.636Z,16.20
2019-05-29T19:17:30.134Z,16.10
2019-05-29T19:19:57.532Z,16.20
2019-05-29T19:22:26.240Z,16.10
2019-05-29T19:24:53.624Z,16.10
2019-05-29T19:27:31.005Z,16.00
2019-05-29T19:29:50.138Z,16.00
2019-05-29T19:32:17.392Z,16.00
2019-05-29T19:34:44.748Z,16.10
2019-05-29T19:37:12.056Z,16.10
2019-05-29T19:39:39.331Z,16.00
2019-05-29T19:42:07.634Z,16.00
2019-05-29T19:44:34.896Z,15.90
2019-05-29T19:47:03.983Z,15.80
2019-05-29T19:49:31.249Z,15.80
2019-05-29T19:51:58.665Z,15.80
2019-05-29T19:54:27.337Z,15.80
2019-05-29T19:56:54.708Z,15.70
2019-05-29T19:59:22.144Z,15.80
2019-05-29T20:01:49.405Z,15.80
2019-05-29T20:04:17.492Z,15.70
2019-05-29T20:06:44.799Z,15.70
2019-05-29T20:09:12.098Z,15.60
2019-05-29T20:11:39.416Z,15.60
2019-05-29T20:14:07.598Z,15.50
2019-05-29T20:16:36.231Z,15.50
2019-05-29T20:19:03.626Z,15.50
2019-05-29T20:21:31.000Z,15.40
2019-05-29T20:23:58.405Z,15.40
2019-05-29T20:26:25.738Z,15.30
2019-05-29T20:28:52.996Z,15.30
2019-05-29T20:31:20.261Z,15.30
2019-05-29T20:33:47.588Z,15.40
2019-05-29T20:36:14.868Z,15.40
2019-05-29T20:38:42.167Z,15.30
2019-05-29T20:41:09.479Z,15.40
2019-05-29T20:43:37.598Z,15.40
2019-05-29T20:46:04.992Z,15.40
2019-05-29T20:48:32.551Z,15.30
2019-05-29T20:50:59.920Z,15.40
2019-05-29T20:53:27.166Z,15.40
2019-05-29T20:55:54.437Z,15.30
2019-05-29T20:58:24.869Z,15.30
2019-05-29T21:00:50.941Z,15.30
2019-05-29T21:03:18.245Z,15.30
2019-05-29T21:05:45.542Z,15.30
2019-05-29T21:08:12.794Z,15.30
2019-05-29T21:10:40.688Z,15.30
2019-05-29T21:13:09.257Z,15.30
2019-05-29T21:15:37.570Z,15.30
2019-05-29T21:18:05.093Z,15.30
2019-05-29T21:20:32.354Z,15.30
2019-05-29T21:22:59.593Z,15.20
2019-05-29T21:25:26.940Z,15.20
2019-05-29T21:27:54.479Z,15.10
2019-05-29T21:30:23.188Z,15.10
2019-05-29T21:32:50.462Z,15.00
2019-05-29T21:35:17.736Z,15.10
2019-05-29T21:37:46.492Z,15.10
2019-05-29T21:40:14.041Z,15.10
2019-05-29T21:42:42.760Z,15.10
2019-05-29T21:45:10.772Z,15.10
2019-05-29T21:47:39.009Z,15.00
2019-05-29T21:50:06.460Z,14.90
2019-05-29T21:52:33.781Z,14.90
2019-05-29T21:55:01.038Z,14.90
2019-05-29T21:57:28.329Z,14.80
2019-05-29T21:59:55.576Z,14.80
2019-05-29T22:04:50.118Z,14.70
2019-05-29T22:07:17.429Z,14.60
2019-05-29T22:09:44.669Z,14.60
2019-05-29T22:12:11.958Z,14.60
2019-05-29T22:14:39.265Z,14.50
2019-05-29T22:17:06.544Z,14.50
2019-05-29T22:19:33.802Z,14.40
2019-05-29T22:22:01.338Z,14.30
2019-05-29T22:24:28.654Z,14.30
2019-05-29T22:26:55.897Z,14.20
2019-05-29T22:29:23.189Z,14.20
2019-05-29T22:31:51.350Z,14.10
2019-05-29T22:34:18.709Z,14.00
2019-05-29T22:36:46.221Z,13.90
2019-05-29T22:39:13.515Z,13.80
2019-05-29T22:41:40.753Z,13.70
2019-05-29T22:44:08.030Z,13.60
2019-05-29T22:46:35.266Z,13.50
2019-05-29T22:49:02.574Z,13.50
2019-05-29T22:51:29.803Z,13.50
2019-05-29T22:53:57.905Z,13.50
2019-05-29T22:56:25.316Z,13.50
2019-05-29T22:58:53.918Z,13.40
2019-05-29T23:01:21.325Z,13.30
2019-05-29T23:03:48.612Z,13.20
2019-05-29T23:06:15.857Z,13.20
2019-05-29T23:08:43.119Z,13.10
2019-05-29T23:11:10.368Z,13.00
2019-05-29T23:13:37.623Z,12.80
2019-05-29T23:16:04.879Z,12.80
2019-05-29T23:18:32.141Z,12.70
2019-05-29T23:21:00.520Z,12.60
2019-05-29T23:23:27.953Z,12.60
2019-05-29T23:25:55.217Z,12.60
2019-05-29T23:28:23.236Z,12.50
2019-05-29T23:30:50.500Z,12.40
2019-05-29T23:33:17.734Z,12.40
2019-05-29T23:35:45.004Z,12.30
2019-05-29T23:38:12.250Z,12.30
2019-05-29T23:40:39.506Z,12.30
2019-05-29T23:43:06.745Z,12.30
2019-05-29T23:45:34.036Z,12.20
2019-05-29T23:48:01.795Z,12.10
2019-05-29T23:50:29.461Z,12.10
2019-05-29T23:52:57.926Z,12.00
2019-05-29T23:55:25.296Z,11.90
2019-05-29T23:57:53.623Z,11.90
